sensor_id;sensor_type;location;lat;lon;timestamp;temperature;humidity
61912;DHT22;49973;52.084;5.412;2023-04-07T00:00:37;9.10;99.90
61912;DHT22;49973;52.084;5.412;2023-04-07T00:03:06;9.00;99.90
61912;DHT22;49973;52.084;5.412;2023-04-07T00:05:35;9.00;99.90
61912;DHT22;49973;52.084;5.412;2023-04-07T00:08:04;9.00;99.90
61912;DHT22;49973;52.084;5.412;2023-04-07T00:10:33;9.00;99.90
61912;DHT22;49973;52.084;5.412;2023-04-07T00:13:02;9.00;99.90
61912;DHT22;49973;52.084;5.412;2023-04-07T00:15:31;9.00;99.90
61912;DHT22;49973;52.084;5.412;2023-04-07T00:18:01;9.00;99.90
61912;DHT22;49973;52.084;5.412;2023-04-07T00:20:30;9.00;99.90
61912;DHT22;49973;52.084;5.412;2023-04-07T00:22:59;8.90;99.90
61912;DHT22;49973;52.084;5.412;2023-04-07T00:25:27;8.90;99.90
61912;DHT22;49973;52.084;5.412;2023-04-07T00:27:56;8.90;99.90
61912;DHT22;49973;52.084;5.412;2023-04-07T00:30:25;8.90;99.90
61912;DHT22;49973;52.084;5.412;2023-04-07T00:32:53;8.80;99.90
61912;DHT22;49973;52.084;5.412;2023-04-07T00:35:25;8.80;99.90
61912;DHT22;49973;52.084;5.412;2023-04-07T00:37:54;8.80;99.90
61912;DHT22;49973;52.084;5.412;2023-04-07T00:40:23;8.70;99.90
61912;DHT22;49973;52.084;5.412;2023-04-07T00:42:52;8.80;99.90
61912;DHT22;49973;52.084;5.412;2023-04-07T00:45:20;8.80;99.90
61912;DHT22;49973;52.084;5.412;2023-04-07T00:47:49;8.80;99.90
61912;DHT22;49973;52.084;5.412;2023-04-07T00:50:18;8.70;99.90
61912;DHT22;49973;52.084;5.412;2023-04-07T00:52:48;8.80;99.90
61912;DHT22;49973;52.084;5.412;2023-04-07T00:55:17;8.70;99.90
61912;DHT22;49973;52.084;5.412;2023-04-07T00:57:46;8.70;99.90
61912;DHT22;49973;52.084;5.412;2023-04-07T01:00:15;8.70;99.90
61912;DHT22;49973;52.084;5.412;2023-04-07T01:02:50;8.70;99.90
61912;DHT22;49973;52.084;5.412;2023-04-07T01:05:24;8.70;99.90
61912;DHT22;49973;52.084;5.412;2023-04-07T01:08:02;8.70;99.90
61912;DHT22;49973;52.084;5.412;2023-04-07T01:10:39;8.70;99.90
61912;DHT22;49973;52.084;5.412;2023-04-07T01:13:21;8.70;99.90
61912;DHT22;49973;52.084;5.412;2023-04-07T01:15:57;8.70;99.90
61912;DHT22;49973;52.084;5.412;2023-04-07T01:18:32;8.70;99.90
61912;DHT22;49973;52.084;5.412;2023-04-07T01:21:05;8.70;99.90
61912;DHT22;49973;52.084;5.412;2023-04-07T01:24:03;8.70;99.90
61912;DHT22;49973;52.084;5.412;2023-04-07T01:26:33;8.70;99.90
61912;DHT22;49973;52.084;5.412;2023-04-07T01:29:31;8.70;99.90
61912;DHT22;49973;52.084;5.412;2023-04-07T01:32:03;8.70;99.90
61912;DHT22;49973;52.084;5.412;2023-04-07T01:34:36;8.70;99.90
61912;DHT22;49973;52.084;5.412;2023-04-07T01:37:06;8.70;99.90
61912;DHT22;49973;52.084;5.412;2023-04-07T01:39:37;8.70;99.90
61912;DHT22;49973;52.084;5.412;2023-04-07T01:42:06;8.60;99.90
61912;DHT22;49973;52.084;5.412;2023-04-07T01:44:37;8.70;99.90
61912;DHT22;49973;52.084;5.412;2023-04-07T01:47:06;8.70;99.90
61912;DHT22;49973;52.084;5.412;2023-04-07T01:49:35;8.70;99.90
61912;DHT22;49973;52.084;5.412;2023-04-07T01:52:05;8.70;99.90
61912;DHT22;49973;52.084;5.412;2023-04-07T01:54:35;8.70;99.90
61912;DHT22;49973;52.084;5.412;2023-04-07T01:57:04;8.70;99.90
61912;DHT22;49973;52.084;5.412;2023-04-07T01:59:32;8.70;99.90
61912;DHT22;49973;52.084;5.412;2023-04-07T02:02:05;8.70;99.90
61912;DHT22;49973;52.084;5.412;2023-04-07T02:04:36;8.70;99.90
61912;DHT22;49973;52.084;5.412;2023-04-07T02:07:09;8.70;99.90
61912;DHT22;49973;52.084;5.412;2023-04-07T02:09:46;8.70;99.90
61912;DHT22;49973;52.084;5.412;2023-04-07T02:12:16;8.70;99.90
61912;DHT22;49973;52.084;5.412;2023-04-07T02:14:57;8.70;99.90
61912;DHT22;49973;52.084;5.412;2023-04-07T02:17:28;8.70;99.90
61912;DHT22;49973;52.084;5.412;2023-04-07T02:19:58;8.70;99.90
61912;DHT22;49973;52.084;5.412;2023-04-07T02:22:29;8.80;99.90
61912;DHT22;49973;52.084;5.412;2023-04-07T02:24:58;8.80;99.90
61912;DHT22;49973;52.084;5.412;2023-04-07T02:27:26;8.80;99.90
61912;DHT22;49973;52.084;5.412;2023-04-07T02:29:55;8.80;99.90
61912;DHT22;49973;52.084;5.412;2023-04-07T02:32:23;8.80;99.90
61912;DHT22;49973;52.084;5.412;2023-04-07T02:34:54;8.70;99.90
61912;DHT22;49973;52.084;5.412;2023-04-07T02:37:22;8.80;99.90
61912;DHT22;49973;52.084;5.412;2023-04-07T02:39:51;8.80;99.90
61912;DHT22;49973;52.084;5.412;2023-04-07T02:42:19;8.80;99.90
61912;DHT22;49973;52.084;5.412;2023-04-07T02:44:48;8.80;99.90
61912;DHT22;49973;52.084;5.412;2023-04-07T02:47:17;8.80;99.90
61912;DHT22;49973;52.084;5.412;2023-04-07T02:49:45;9.00;99.90
61912;DHT22;49973;52.084;5.412;2023-04-07T02:52:15;8.80;99.90
61912;DHT22;49973;52.084;5.412;2023-04-07T02:54:44;8.80;99.90
61912;DHT22;49973;52.084;5.412;2023-04-07T02:57:14;8.80;99.90
61912;DHT22;49973;52.084;5.412;2023-04-07T02:59:42;8.80;99.90
61912;DHT22;49973;52.084;5.412;2023-04-07T03:02:13;8.80;99.90
61912;DHT22;49973;52.084;5.412;2023-04-07T03:04:41;8.80;99.90
61912;DHT22;49973;52.084;5.412;2023-04-07T03:07:10;8.90;99.90
61912;DHT22;49973;52.084;5.412;2023-04-07T03:09:41;8.80;99.90
61912;DHT22;49973;52.084;5.412;2023-04-07T03:12:11;8.80;99.90
61912;DHT22;49973;52.084;5.412;2023-04-07T03:14:40;8.80;99.90
61912;DHT22;49973;52.084;5.412;2023-04-07T03:17:09;8.80;99.90
61912;DHT22;49973;52.084;5.412;2023-04-07T03:19:38;8.80;99.90
61912;DHT22;49973;52.084;5.412;2023-04-07T03:22:07;8.80;99.90
61912;DHT22;49973;52.084;5.412;2023-04-07T03:24:44;8.80;99.90
61912;DHT22;49973;52.084;5.412;2023-04-07T03:27:13;8.80;99.90
61912;DHT22;49973;52.084;5.412;2023-04-07T03:29:46;8.80;99.90
61912;DHT22;49973;52.084;5.412;2023-04-07T03:32:16;8.80;99.90
61912;DHT22;49973;52.084;5.412;2023-04-07T03:34:45;8.80;99.90
61912;DHT22;49973;52.084;5.412;2023-04-07T03:37:13;8.80;99.90
61912;DHT22;49973;52.084;5.412;2023-04-07T03:39:44;8.70;99.90
61912;DHT22;49973;52.084;5.412;2023-04-07T03:46:42;8.80;99.90
61912;DHT22;49973;52.084;5.412;2023-04-07T03:49:12;8.80;99.90
61912;DHT22;49973;52.084;5.412;2023-04-07T03:51:40;8.70;99.90
61912;DHT22;49973;52.084;5.412;2023-04-07T03:54:14;8.70;99.90
61912;DHT22;49973;52.084;5.412;2023-04-07T03:56:45;8.90;99.90
61912;DHT22;49973;52.084;5.412;2023-04-07T03:59:17;8.70;99.90
61912;DHT22;49973;52.084;5.412;2023-04-07T04:01:54;8.70;99.90
61912;DHT22;49973;52.084;5.412;2023-04-07T04:04:23;8.70;99.90
61912;DHT22;49973;52.084;5.412;2023-04-07T04:06:52;8.70;99.90
61912;DHT22;49973;52.084;5.412;2023-04-07T04:09:28;8.70;99.90
61912;DHT22;49973;52.084;5.412;2023-04-07T04:11:59;8.80;99.90
61912;DHT22;49973;52.084;5.412;2023-04-07T04:14:30;8.80;99.90
61912;DHT22;49973;52.084;5.412;2023-04-07T04:17:01;8.70;99.90
61912;DHT22;49973;52.084;5.412;2023-04-07T04:19:40;8.70;99.90
61912;DHT22;49973;52.084;5.412;2023-04-07T04:22:16;8.70;99.90
61912;DHT22;49973;52.084;5.412;2023-04-07T04:24:50;8.70;99.90
61912;DHT22;49973;52.084;5.412;2023-04-07T04:27:22;8.80;99.90
61912;DHT22;49973;52.084;5.412;2023-04-07T04:29:57;8.70;99.90
61912;DHT22;49973;52.084;5.412;2023-04-07T04:32:39;8.70;99.90
61912;DHT22;49973;52.084;5.412;2023-04-07T04:35:09;8.70;99.90
61912;DHT22;49973;52.084;5.412;2023-04-07T04:37:47;8.70;99.90
61912;DHT22;49973;52.084;5.412;2023-04-07T04:40:16;8.80;99.90
61912;DHT22;49973;52.084;5.412;2023-04-07T04:42:49;8.80;99.90
61912;DHT22;49973;52.084;5.412;2023-04-07T04:45:20;8.80;99.90
61912;DHT22;49973;52.084;5.412;2023-04-07T04:47:49;8.80;99.90
61912;DHT22;49973;52.084;5.412;2023-04-07T04:50:18;8.80;99.90
61912;DHT22;49973;52.084;5.412;2023-04-07T04:52:48;8.70;99.90
61912;DHT22;49973;52.084;5.412;2023-04-07T04:55:23;8.80;99.90
61912;DHT22;49973;52.084;5.412;2023-04-07T04:57:54;8.90;99.90
61912;DHT22;49973;52.084;5.412;2023-04-07T05:00:34;8.70;99.90
61912;DHT22;49973;52.084;5.412;2023-04-07T05:03:06;8.90;99.90
61912;DHT22;49973;52.084;5.412;2023-04-07T05:05:39;8.70;99.90
61912;DHT22;49973;52.084;5.412;2023-04-07T05:08:10;8.70;99.90
61912;DHT22;49973;52.084;5.412;2023-04-07T05:10:40;8.70;99.90
61912;DHT22;49973;52.084;5.412;2023-04-07T05:13:14;8.90;99.90
61912;DHT22;49973;52.084;5.412;2023-04-07T05:15:42;8.80;99.90
61912;DHT22;49973;52.084;5.412;2023-04-07T05:18:12;8.70;99.90
61912;DHT22;49973;52.084;5.412;2023-04-07T05:20:42;8.70;99.90
61912;DHT22;49973;52.084;5.412;2023-04-07T05:23:12;8.90;99.90
61912;DHT22;49973;52.084;5.412;2023-04-07T05:25:42;8.70;99.90
61912;DHT22;49973;52.084;5.412;2023-04-07T05:28:10;8.80;99.90
61912;DHT22;49973;52.084;5.412;2023-04-07T05:30:40;8.80;99.90
61912;DHT22;49973;52.084;5.412;2023-04-07T05:33:09;8.80;99.90
61912;DHT22;49973;52.084;5.412;2023-04-07T05:35:56;8.70;99.90
61912;DHT22;49973;52.084;5.412;2023-04-07T05:38:25;8.70;99.90
61912;DHT22;49973;52.084;5.412;2023-04-07T05:40:58;8.80;99.90
61912;DHT22;49973;52.084;5.412;2023-04-07T05:43:32;8.80;99.90
61912;DHT22;49973;52.084;5.412;2023-04-07T05:46:02;8.70;99.90
61912;DHT22;49973;52.084;5.412;2023-04-07T05:48:33;8.70;99.90
61912;DHT22;49973;52.084;5.412;2023-04-07T05:51:03;8.90;99.90
61912;DHT22;49973;52.084;5.412;2023-04-07T05:53:32;8.70;99.90
61912;DHT22;49973;52.084;5.412;2023-04-07T05:56:01;8.70;99.90
61912;DHT22;49973;52.084;5.412;2023-04-07T05:58:48;8.70;99.90
61912;DHT22;49973;52.084;5.412;2023-04-07T06:01:19;8.80;99.90
61912;DHT22;49973;52.084;5.412;2023-04-07T06:03:48;8.80;99.90
61912;DHT22;49973;52.084;5.412;2023-04-07T06:06:20;8.80;99.90
61912;DHT22;49973;52.084;5.412;2023-04-07T06:08:49;8.90;99.90
61912;DHT22;49973;52.084;5.412;2023-04-07T06:11:18;8.80;99.90
61912;DHT22;49973;52.084;5.412;2023-04-07T06:13:47;8.80;99.90
61912;DHT22;49973;52.084;5.412;2023-04-07T06:16:16;8.80;99.90
61912;DHT22;49973;52.084;5.412;2023-04-07T06:18:47;8.90;99.90
61912;DHT22;49973;52.084;5.412;2023-04-07T06:21:16;8.80;99.90
61912;DHT22;49973;52.084;5.412;2023-04-07T06:23:44;8.80;99.90
61912;DHT22;49973;52.084;5.412;2023-04-07T06:26:13;8.80;99.90
61912;DHT22;49973;52.084;5.412;2023-04-07T06:28:42;8.80;99.90
61912;DHT22;49973;52.084;5.412;2023-04-07T06:31:11;8.80;99.90
61912;DHT22;49973;52.084;5.412;2023-04-07T06:33:39;8.80;99.90
61912;DHT22;49973;52.084;5.412;2023-04-07T06:36:09;8.80;99.90
61912;DHT22;49973;52.084;5.412;2023-04-07T06:38:38;8.80;99.90
61912;DHT22;49973;52.084;5.412;2023-04-07T06:41:07;8.80;99.90
61912;DHT22;49973;52.084;5.412;2023-04-07T06:43:38;8.80;99.90
61912;DHT22;49973;52.084;5.412;2023-04-07T06:46:07;8.80;99.90
61912;DHT22;49973;52.084;5.412;2023-04-07T06:48:36;8.90;99.90
61912;DHT22;49973;52.084;5.412;2023-04-07T06:51:04;9.00;99.90
61912;DHT22;49973;52.084;5.412;2023-04-07T06:53:34;9.10;99.90
61912;DHT22;49973;52.084;5.412;2023-04-07T06:56:04;9.20;99.90
61912;DHT22;49973;52.084;5.412;2023-04-07T06:58:33;9.20;99.90
61912;DHT22;49973;52.084;5.412;2023-04-07T07:01:04;9.20;99.90
61912;DHT22;49973;52.084;5.412;2023-04-07T07:03:33;9.20;99.90
61912;DHT22;49973;52.084;5.412;2023-04-07T07:06:02;9.40;99.90
61912;DHT22;49973;52.084;5.412;2023-04-07T07:08:31;9.30;99.90
61912;DHT22;49973;52.084;5.412;2023-04-07T07:11:01;9.40;99.90
61912;DHT22;49973;52.084;5.412;2023-04-07T07:13:29;9.50;99.90
61912;DHT22;49973;52.084;5.412;2023-04-07T07:15:58;9.60;99.90
61912;DHT22;49973;52.084;5.412;2023-04-07T07:18:26;9.60;99.90
61912;DHT22;49973;52.084;5.412;2023-04-07T07:20:58;9.60;99.90
61912;DHT22;49973;52.084;5.412;2023-04-07T07:23:26;9.70;99.90
61912;DHT22;49973;52.084;5.412;2023-04-07T07:25:55;9.80;99.90
61912;DHT22;49973;52.084;5.412;2023-04-07T07:28:25;9.80;99.90
61912;DHT22;49973;52.084;5.412;2023-04-07T07:30:55;9.80;99.90
61912;DHT22;49973;52.084;5.412;2023-04-07T07:33:23;9.90;99.90
61912;DHT22;49973;52.084;5.412;2023-04-07T07:35:52;10.00;99.90
61912;DHT22;49973;52.084;5.412;2023-04-07T07:38:21;9.90;99.90
61912;DHT22;49973;52.084;5.412;2023-04-07T07:40:49;9.80;99.90
61912;DHT22;49973;52.084;5.412;2023-04-07T07:43:18;10.00;99.90
61912;DHT22;49973;52.084;5.412;2023-04-07T07:45:48;10.00;99.90
61912;DHT22;49973;52.084;5.412;2023-04-07T07:48:16;10.00;99.90
61912;DHT22;49973;52.084;5.412;2023-04-07T07:50:45;10.00;99.90
61912;DHT22;49973;52.084;5.412;2023-04-07T07:53:15;10.00;99.90
61912;DHT22;49973;52.084;5.412;2023-04-07T07:55:44;10.00;99.90
61912;DHT22;49973;52.084;5.412;2023-04-07T07:58:13;10.00;99.90
61912;DHT22;49973;52.084;5.412;2023-04-07T08:00:42;10.00;99.90
61912;DHT22;49973;52.084;5.412;2023-04-07T08:03:12;9.90;99.90
61912;DHT22;49973;52.084;5.412;2023-04-07T08:05:40;10.00;99.90
61912;DHT22;49973;52.084;5.412;2023-04-07T08:08:10;10.00;99.90
61912;DHT22;49973;52.084;5.412;2023-04-07T08:10:39;10.00;99.90
61912;DHT22;49973;52.084;5.412;2023-04-07T08:13:07;10.10;99.90
61912;DHT22;49973;52.084;5.412;2023-04-07T08:15:36;10.10;99.90
61912;DHT22;49973;52.084;5.412;2023-04-07T08:18:05;10.10;99.90
61912;DHT22;49973;52.084;5.412;2023-04-07T08:20:35;10.10;99.90
61912;DHT22;49973;52.084;5.412;2023-04-07T08:23:04;10.10;99.90
61912;DHT22;49973;52.084;5.412;2023-04-07T08:25:33;10.20;99.90
61912;DHT22;49973;52.084;5.412;2023-04-07T08:28:02;10.20;99.90
61912;DHT22;49973;52.084;5.412;2023-04-07T08:30:31;10.30;99.90
61912;DHT22;49973;52.084;5.412;2023-04-07T08:32:59;10.30;99.90
61912;DHT22;49973;52.084;5.412;2023-04-07T08:35:28;10.40;99.90
61912;DHT22;49973;52.084;5.412;2023-04-07T08:37:58;10.60;99.90
61912;DHT22;49973;52.084;5.412;2023-04-07T08:40:26;10.80;99.90
61912;DHT22;49973;52.084;5.412;2023-04-07T08:42:56;10.90;99.90
61912;DHT22;49973;52.084;5.412;2023-04-07T08:45:27;11.20;99.90
61912;DHT22;49973;52.084;5.412;2023-04-07T08:47:57;11.10;99.90
61912;DHT22;49973;52.084;5.412;2023-04-07T08:50:26;11.20;99.90
61912;DHT22;49973;52.084;5.412;2023-04-07T08:52:58;11.20;99.90
61912;DHT22;49973;52.084;5.412;2023-04-07T08:55:27;11.20;99.90
61912;DHT22;49973;52.084;5.412;2023-04-07T08:57:56;11.20;99.90
61912;DHT22;49973;52.084;5.412;2023-04-07T09:00:28;11.30;99.90
61912;DHT22;49973;52.084;5.412;2023-04-07T09:02:59;11.30;99.90
61912;DHT22;49973;52.084;5.412;2023-04-07T09:05:29;11.30;99.90
61912;DHT22;49973;52.084;5.412;2023-04-07T09:08:01;11.30;99.90
61912;DHT22;49973;52.084;5.412;2023-04-07T09:10:29;11.20;99.90
61912;DHT22;49973;52.084;5.412;2023-04-07T09:12:58;11.10;99.90
61912;DHT22;49973;52.084;5.412;2023-04-07T09:15:29;11.00;99.90
61912;DHT22;49973;52.084;5.412;2023-04-07T09:17:58;11.00;99.90
61912;DHT22;49973;52.084;5.412;2023-04-07T09:20:27;11.00;99.90
61912;DHT22;49973;52.084;5.412;2023-04-07T09:22:56;11.00;99.90
61912;DHT22;49973;52.084;5.412;2023-04-07T09:25:27;11.00;99.90
61912;DHT22;49973;52.084;5.412;2023-04-07T09:27:58;11.00;99.90
61912;DHT22;49973;52.084;5.412;2023-04-07T09:30:28;11.00;99.90
61912;DHT22;49973;52.084;5.412;2023-04-07T09:32:58;11.00;99.90
61912;DHT22;49973;52.084;5.412;2023-04-07T09:35:27;11.00;99.90
61912;DHT22;49973;52.084;5.412;2023-04-07T09:38:06;11.00;99.90
61912;DHT22;49973;52.084;5.412;2023-04-07T09:40:36;11.00;99.90
61912;DHT22;49973;52.084;5.412;2023-04-07T09:43:05;10.90;99.90
61912;DHT22;49973;52.084;5.412;2023-04-07T09:45:34;11.00;99.90
61912;DHT22;49973;52.084;5.412;2023-04-07T09:48:04;10.90;99.90
61912;DHT22;49973;52.084;5.412;2023-04-07T09:50:35;10.80;99.90
61912;DHT22;49973;52.084;5.412;2023-04-07T09:53:05;10.90;99.90
61912;DHT22;49973;52.084;5.412;2023-04-07T09:55:35;10.80;99.90
61912;DHT22;49973;52.084;5.412;2023-04-07T09:58:05;10.80;99.90
61912;DHT22;49973;52.084;5.412;2023-04-07T10:00:35;10.80;99.90
61912;DHT22;49973;52.084;5.412;2023-04-07T10:03:04;10.90;99.90
61912;DHT22;49973;52.084;5.412;2023-04-07T10:05:35;11.00;99.90
61912;DHT22;49973;52.084;5.412;2023-04-07T10:08:05;10.90;99.90
61912;DHT22;49973;52.084;5.412;2023-04-07T10:10:37;10.90;99.90
61912;DHT22;49973;52.084;5.412;2023-04-07T10:13:09;10.90;99.90
61912;DHT22;49973;52.084;5.412;2023-04-07T10:15:38;10.90;99.90
61912;DHT22;49973;52.084;5.412;2023-04-07T10:18:07;10.90;99.90
61912;DHT22;49973;52.084;5.412;2023-04-07T10:20:39;10.90;99.90
61912;DHT22;49973;52.084;5.412;2023-04-07T10:23:15;10.90;99.90
61912;DHT22;49973;52.084;5.412;2023-04-07T10:25:46;10.90;99.90
61912;DHT22;49973;52.084;5.412;2023-04-07T10:28:18;10.90;99.90
61912;DHT22;49973;52.084;5.412;2023-04-07T10:30:49;10.80;99.90
61912;DHT22;49973;52.084;5.412;2023-04-07T10:33:19;10.90;99.90
61912;DHT22;49973;52.084;5.412;2023-04-07T10:36:07;11.00;99.90
61912;DHT22;49973;52.084;5.412;2023-04-07T10:38:36;11.10;99.90
61912;DHT22;49973;52.084;5.412;2023-04-07T10:41:34;11.30;99.90
61912;DHT22;49973;52.084;5.412;2023-04-07T10:44:04;11.40;99.90
61912;DHT22;49973;52.084;5.412;2023-04-07T10:47:02;11.50;99.90
61912;DHT22;49973;52.084;5.412;2023-04-07T10:49:32;11.50;99.90
61912;DHT22;49973;52.084;5.412;2023-04-07T10:58:19;11.40;99.90
61912;DHT22;49973;52.084;5.412;2023-04-07T11:01:16;11.30;99.90
61912;DHT22;49973;52.084;5.412;2023-04-07T11:03:59;11.30;99.90
61912;DHT22;49973;52.084;5.412;2023-04-07T11:06:28;11.20;99.90
61912;DHT22;49973;52.084;5.412;2023-04-07T11:08:57;11.20;99.90
61912;DHT22;49973;52.084;5.412;2023-04-07T11:11:37;11.20;99.90
61912;DHT22;49973;52.084;5.412;2023-04-07T11:14:07;11.30;99.90
61912;DHT22;49973;52.084;5.412;2023-04-07T11:16:38;11.30;99.90
61912;DHT22;49973;52.084;5.412;2023-04-07T11:19:07;11.30;99.90
61912;DHT22;49973;52.084;5.412;2023-04-07T11:21:36;11.40;99.90
61912;DHT22;49973;52.084;5.412;2023-04-07T11:24:05;11.40;99.90
61912;DHT22;49973;52.084;5.412;2023-04-07T11:26:38;11.50;99.90
61912;DHT22;49973;52.084;5.412;2023-04-07T11:29:09;11.40;99.90
61912;DHT22;49973;52.084;5.412;2023-04-07T11:31:39;11.50;99.90
61912;DHT22;49973;52.084;5.412;2023-04-07T11:34:07;11.40;99.90
61912;DHT22;49973;52.084;5.412;2023-04-07T11:36:38;11.40;99.90
61912;DHT22;49973;52.084;5.412;2023-04-07T11:39:17;11.40;99.90
61912;DHT22;49973;52.084;5.412;2023-04-07T11:41:47;11.40;99.90
61912;DHT22;49973;52.084;5.412;2023-04-07T11:44:18;11.40;99.90
61912;DHT22;49973;52.084;5.412;2023-04-07T11:46:54;11.40;99.90
61912;DHT22;49973;52.084;5.412;2023-04-07T11:49:24;11.40;99.90
61912;DHT22;49973;52.084;5.412;2023-04-07T11:51:58;11.40;99.90
61912;DHT22;49973;52.084;5.412;2023-04-07T11:54:27;11.50;99.90
61912;DHT22;49973;52.084;5.412;2023-04-07T11:57:05;11.50;99.90
61912;DHT22;49973;52.084;5.412;2023-04-07T11:59:38;11.50;99.90
61912;DHT22;49973;52.084;5.412;2023-04-07T12:02:07;11.60;99.90
61912;DHT22;49973;52.084;5.412;2023-04-07T12:04:36;11.60;99.90
61912;DHT22;49973;52.084;5.412;2023-04-07T12:07:08;11.60;99.90
61912;DHT22;49973;52.084;5.412;2023-04-07T12:09:37;11.70;99.90
61912;DHT22;49973;52.084;5.412;2023-04-07T12:12:06;11.70;99.90
61912;DHT22;49973;52.084;5.412;2023-04-07T12:14:38;11.80;99.90
61912;DHT22;49973;52.084;5.412;2023-04-07T12:17:06;11.80;99.90
61912;DHT22;49973;52.084;5.412;2023-04-07T12:19:47;11.80;99.90
61912;DHT22;49973;52.084;5.412;2023-04-07T12:22:16;11.80;99.90
61912;DHT22;49973;52.084;5.412;2023-04-07T12:24:44;11.80;99.90
61912;DHT22;49973;52.084;5.412;2023-04-07T12:27:13;11.70;99.90
61912;DHT22;49973;52.084;5.412;2023-04-07T12:29:43;11.80;99.90
61912;DHT22;49973;52.084;5.412;2023-04-07T12:32:11;11.70;99.90
61912;DHT22;49973;52.084;5.412;2023-04-07T12:34:40;11.70;99.90
61912;DHT22;49973;52.084;5.412;2023-04-07T12:37:10;11.70;99.90
61912;DHT22;49973;52.084;5.412;2023-04-07T12:39:38;11.70;99.90
61912;DHT22;49973;52.084;5.412;2023-04-07T12:42:07;11.70;99.90
61912;DHT22;49973;52.084;5.412;2023-04-07T12:44:38;11.80;99.90
61912;DHT22;49973;52.084;5.412;2023-04-07T12:47:08;11.80;99.90
61912;DHT22;49973;52.084;5.412;2023-04-07T12:49:38;11.90;99.90
61912;DHT22;49973;52.084;5.412;2023-04-07T12:52:06;12.10;99.90
61912;DHT22;49973;52.084;5.412;2023-04-07T12:54:35;12.20;99.90
61912;DHT22;49973;52.084;5.412;2023-04-07T12:57:04;12.20;99.90
61912;DHT22;49973;52.084;5.412;2023-04-07T12:59:33;12.30;99.90
61912;DHT22;49973;52.084;5.412;2023-04-07T13:02:02;12.30;99.90
61912;DHT22;49973;52.084;5.412;2023-04-07T13:04:32;12.20;99.90
61912;DHT22;49973;52.084;5.412;2023-04-07T13:07:01;12.20;99.90
61912;DHT22;49973;52.084;5.412;2023-04-07T13:09:30;12.20;99.90
61912;DHT22;49973;52.084;5.412;2023-04-07T13:11:59;12.10;99.90
61912;DHT22;49973;52.084;5.412;2023-04-07T13:14:28;12.10;99.90
61912;DHT22;49973;52.084;5.412;2023-04-07T13:16:57;12.00;99.90
61912;DHT22;49973;52.084;5.412;2023-04-07T13:19:25;11.90;99.90
61912;DHT22;49973;52.084;5.412;2023-04-07T13:21:55;11.90;99.90
61912;DHT22;49973;52.084;5.412;2023-04-07T13:24:24;11.80;99.90
61912;DHT22;49973;52.084;5.412;2023-04-07T13:26:53;11.80;99.90
61912;DHT22;49973;52.084;5.412;2023-04-07T13:29:22;11.60;99.90
61912;DHT22;49973;52.084;5.412;2023-04-07T13:31:50;11.80;99.90
61912;DHT22;49973;52.084;5.412;2023-04-07T13:34:19;11.80;99.90
61912;DHT22;49973;52.084;5.412;2023-04-07T13:36:48;11.90;99.90
61912;DHT22;49973;52.084;5.412;2023-04-07T13:39:17;11.90;99.90
61912;DHT22;49973;52.084;5.412;2023-04-07T13:41:46;11.90;99.90
61912;DHT22;49973;52.084;5.412;2023-04-07T13:44:15;12.00;99.90
61912;DHT22;49973;52.084;5.412;2023-04-07T13:46:43;12.00;99.90
61912;DHT22;49973;52.084;5.412;2023-04-07T13:49:12;12.00;99.90
61912;DHT22;49973;52.084;5.412;2023-04-07T13:51:41;12.00;99.90
61912;DHT22;49973;52.084;5.412;2023-04-07T13:54:10;12.00;99.90
61912;DHT22;49973;52.084;5.412;2023-04-07T13:56:40;11.80;99.90
61912;DHT22;49973;52.084;5.412;2023-04-07T13:59:08;11.80;99.90
61912;DHT22;49973;52.084;5.412;2023-04-07T14:01:37;11.70;99.90
61912;DHT22;49973;52.084;5.412;2023-04-07T14:04:06;11.70;99.90
61912;DHT22;49973;52.084;5.412;2023-04-07T14:06:35;11.70;99.90
61912;DHT22;49973;52.084;5.412;2023-04-07T14:09:04;11.60;99.90
61912;DHT22;49973;52.084;5.412;2023-04-07T14:11:33;11.60;99.90
61912;DHT22;49973;52.084;5.412;2023-04-07T14:14:03;11.60;99.90
61912;DHT22;49973;52.084;5.412;2023-04-07T14:16:32;11.50;99.90
61912;DHT22;49973;52.084;5.412;2023-04-07T14:19:00;11.50;99.90
61912;DHT22;49973;52.084;5.412;2023-04-07T14:21:29;11.60;99.90
61912;DHT22;49973;52.084;5.412;2023-04-07T14:23:58;11.50;99.90
61912;DHT22;49973;52.084;5.412;2023-04-07T14:26:27;11.50;99.90
61912;DHT22;49973;52.084;5.412;2023-04-07T14:28:55;11.50;99.90
61912;DHT22;49973;52.084;5.412;2023-04-07T14:31:25;11.50;99.90
61912;DHT22;49973;52.084;5.412;2023-04-07T14:33:54;11.50;99.90
61912;DHT22;49973;52.084;5.412;2023-04-07T14:36:23;11.60;99.90
61912;DHT22;49973;52.084;5.412;2023-04-07T14:38:51;11.50;99.90
61912;DHT22;49973;52.084;5.412;2023-04-07T14:41:20;11.50;99.90
61912;DHT22;49973;52.084;5.412;2023-04-07T14:43:49;11.60;99.90
61912;DHT22;49973;52.084;5.412;2023-04-07T14:46:22;11.50;99.90
61912;DHT22;49973;52.084;5.412;2023-04-07T14:48:52;11.50;99.90
61912;DHT22;49973;52.084;5.412;2023-04-07T14:51:22;11.40;99.90
61912;DHT22;49973;52.084;5.412;2023-04-07T14:53:50;11.40;99.90
61912;DHT22;49973;52.084;5.412;2023-04-07T14:56:22;11.40;99.90
61912;DHT22;49973;52.084;5.412;2023-04-07T14:58:51;11.30;99.90
61912;DHT22;49973;52.084;5.412;2023-04-07T15:01:20;11.40;99.90
61912;DHT22;49973;52.084;5.412;2023-04-07T15:03:49;11.40;99.90
61912;DHT22;49973;52.084;5.412;2023-04-07T15:06:20;11.50;99.90
61912;DHT22;49973;52.084;5.412;2023-04-07T15:08:49;11.50;99.90
61912;DHT22;49973;52.084;5.412;2023-04-07T15:11:18;11.50;99.90
61912;DHT22;49973;52.084;5.412;2023-04-07T15:13:47;11.50;99.90
61912;DHT22;49973;52.084;5.412;2023-04-07T15:16:17;11.50;99.90
61912;DHT22;49973;52.084;5.412;2023-04-07T15:18:45;11.40;99.90
61912;DHT22;49973;52.084;5.412;2023-04-07T15:21:14;11.30;99.90
61912;DHT22;49973;52.084;5.412;2023-04-07T15:23:44;11.40;99.90
61912;DHT22;49973;52.084;5.412;2023-04-07T15:26:13;11.20;99.90
61912;DHT22;49973;52.084;5.412;2023-04-07T15:28:42;11.30;99.90
61912;DHT22;49973;52.084;5.412;2023-04-07T15:31:11;11.10;99.90
61912;DHT22;49973;52.084;5.412;2023-04-07T15:33:39;11.10;99.90
61912;DHT22;49973;52.084;5.412;2023-04-07T15:36:10;11.00;99.90
61912;DHT22;49973;52.084;5.412;2023-04-07T15:38:39;11.00;99.90
61912;DHT22;49973;52.084;5.412;2023-04-07T15:41:09;11.00;99.90
61912;DHT22;49973;52.084;5.412;2023-04-07T15:43:41;10.90;99.90
61912;DHT22;49973;52.084;5.412;2023-04-07T15:46:10;10.80;99.90
61912;DHT22;49973;52.084;5.412;2023-04-07T15:48:38;10.80;99.90
61912;DHT22;49973;52.084;5.412;2023-04-07T15:51:07;10.70;99.90
61912;DHT22;49973;52.084;5.412;2023-04-07T15:53:36;10.60;99.90
61912;DHT22;49973;52.084;5.412;2023-04-07T15:56:05;10.60;99.90
61912;DHT22;49973;52.084;5.412;2023-04-07T15:58:35;10.50;99.90
61912;DHT22;49973;52.084;5.412;2023-04-07T16:01:04;10.40;99.90
61912;DHT22;49973;52.084;5.412;2023-04-07T16:03:32;10.40;99.90
61912;DHT22;49973;52.084;5.412;2023-04-07T16:06:01;10.40;99.90
61912;DHT22;49973;52.084;5.412;2023-04-07T16:08:30;10.40;99.90